sensor_id;sensor_type;location;lat;lon;timestamp;pressure;altitude;pressure_sealevel;temperature;humidity
10366;BME280;5229;41.820;23.490;2023-05-22T00:01:36;89786.53;;;15.09;63.76
10366;BME280;5229;41.820;23.490;2023-05-22T00:04:03;89784.59;;;15.06;63.50
10366;BME280;5229;41.820;23.490;2023-05-22T00:06:30;89781.91;;;15.02;63.66
10366;BME280;5229;41.820;23.490;2023-05-22T00:08:59;89776.91;;;14.97;63.51
10366;BME280;5229;41.820;23.490;2023-05-22T00:11:26;89781.47;;;15.00;64.07
10366;BME280;5229;41.820;23.490;2023-05-22T00:13:53;89785.59;;;15.01;64.01
10366;BME280;5229;41.820;23.490;2023-05-22T00:16:20;89786.34;;;15.02;64.26
10366;BME280;5229;41.820;23.490;2023-05-22T00:18:46;89781.47;;;15.00;63.91
10366;BME280;5229;41.820;23.490;2023-05-22T00:21:14;89777.75;;;15.01;63.94
10366;BME280;5229;41.820;23.490;2023-05-22T00:23:41;89786.69;;;15.00;64.13
10366;BME280;5229;41.820;23.490;2023-05-22T00:26:09;89779.28;;;15.02;63.57
10366;BME280;5229;41.820;23.490;2023-05-22T00:28:36;89785.69;;;15.05;63.56
10366;BME280;5229;41.820;23.490;2023-05-22T00:31:03;89784.59;;;15.06;64.15
10366;BME280;5229;41.820;23.490;2023-05-22T00:33:30;89783.09;;;15.05;nan
10366;BME280;5229;41.820;23.490;2023-05-22T00:35:58;89783.09;;;15.05;64.10
10366;BME280;5229;41.820;23.490;2023-05-22T00:38:29;89788.63;;;15.03;64.34
10366;BME280;5229;41.820;23.490;2023-05-22T00:40:57;89789.31;;;15.00;64.32
10366;BME280;5229;41.820;23.490;2023-05-22T00:43:25;89788.44;;;14.96;64.48
10366;BME280;5229;41.820;23.490;2023-05-22T00:45:52;89795.78;;;14.91;65.04
10366;BME280;5229;41.820;23.490;2023-05-22T00:48:19;89791.13;;;14.84;64.91
10366;BME280;5229;41.820;23.490;2023-05-22T00:50:46;89797.44;;;14.83;65.61
10366;BME280;5229;41.820;23.490;2023-05-22T00:53:14;89785.91;;;14.84;65.83
10366;BME280;5229;41.820;23.490;2023-05-22T00:55:42;89791.97;;;14.88;65.64
10366;BME280;5229;41.820;23.490;2023-05-22T00:58:13;89784.81;;;14.85;65.80
10366;BME280;5229;41.820;23.490;2023-05-22T01:00:43;89796.69;;;14.83;65.96
10366;BME280;5229;41.820;23.490;2023-05-22T01:03:11;89788.34;;;14.77;65.98
10366;BME280;5229;41.820;23.490;2023-05-22T01:05:38;89779.53;;;14.69;66.40
10366;BME280;5229;41.820;23.490;2023-05-22T01:08:06;89786.41;;;14.62;66.97
10366;BME280;5229;41.820;23.490;2023-05-22T01:10:35;89780.25;;;14.54;67.53
10366;BME280;5229;41.820;23.490;2023-05-22T01:13:08;89782.03;;;14.50;67.22
10366;BME280;5229;41.820;23.490;2023-05-22T01:15:46;89788.22;;;14.46;67.52
10366;BME280;5229;41.820;23.490;2023-05-22T01:18:19;89777.34;;;14.44;67.48
10366;BME280;5229;41.820;23.490;2023-05-22T01:20:52;89782.16;;;14.42;67.78
10366;BME280;5229;41.820;23.490;2023-05-22T01:26:55;89781.97;;;14.35;67.92
10366;BME280;5229;41.820;23.490;2023-05-22T01:29:40;89782.69;;;14.35;67.95
10366;BME280;5229;41.820;23.490;2023-05-22T01:32:12;89778.25;;;14.36;67.79
10366;BME280;5229;41.820;23.490;2023-05-22T01:34:41;89768.91;;;14.35;68.17
10366;BME280;5229;41.820;23.490;2023-05-22T01:37:10;89764.78;;;14.34;67.73
10366;BME280;5229;41.820;23.490;2023-05-22T01:39:39;89762.59;;;14.36;67.70
10366;BME280;5229;41.820;23.490;2023-05-22T01:42:06;89757.38;;;14.36;67.57
10366;BME280;5229;41.820;23.490;2023-05-22T01:44:33;89761.09;;;14.35;67.53
10366;BME280;5229;41.820;23.490;2023-05-22T01:47:00;89758.47;;;14.35;67.75
10366;BME280;5229;41.820;23.490;2023-05-22T01:49:31;89752.50;;;14.34;67.42
10366;BME280;5229;41.820;23.490;2023-05-22T01:52:04;89756.63;;;14.35;67.68
10366;BME280;5229;41.820;23.490;2023-05-22T01:54:37;89755.44;;;14.33;67.37
10366;BME280;5229;41.820;23.490;2023-05-22T01:57:10;89749.44;;;14.32;67.33
10366;BME280;5229;41.820;23.490;2023-05-22T01:59:43;89760.97;;;14.31;66.87
10366;BME280;5229;41.820;23.490;2023-05-22T02:02:15;89753.47;;;14.30;67.22
10366;BME280;5229;41.820;23.490;2023-05-22T02:04:50;89756.41;;;14.28;67.21
10366;BME280;5229;41.820;23.490;2023-05-22T02:07:20;89761.63;;;14.28;66.60
10366;BME280;5229;41.820;23.490;2023-05-22T02:09:49;89754.66;;;14.32;67.04
10366;BME280;5229;41.820;23.490;2023-05-22T02:12:17;89751.72;;;14.34;66.84
10366;BME280;5229;41.820;23.490;2023-05-22T02:14:45;89749.56;;;14.36;66.39
10366;BME280;5229;41.820;23.490;2023-05-22T02:17:12;89741.53;;;14.29;66.48
10366;BME280;5229;41.820;23.490;2023-05-22T02:19:39;89745.66;;;14.30;66.56
10366;BME280;5229;41.820;23.490;2023-05-22T02:22:07;89744.03;;;14.25;66.59
10366;BME280;5229;41.820;23.490;2023-05-22T02:24:39;89746.56;;;14.22;66.20
10366;BME280;5229;41.820;23.490;2023-05-22T02:27:07;89746.00;;;14.16;66.27
10366;BME280;5229;41.820;23.490;2023-05-22T02:29:33;89742.22;;;14.14;66.48
10366;BME280;5229;41.820;23.490;2023-05-22T02:32:00;89741.78;;;14.12;66.40
10366;BME280;5229;41.820;23.490;2023-05-22T02:34:27;89743.19;;;14.09;65.95
10366;BME280;5229;41.820;23.490;2023-05-22T02:36:56;89747.00;;;14.12;65.79
10366;BME280;5229;41.820;23.490;2023-05-22T02:39:25;89754.81;;;14.12;65.66
10366;BME280;5229;41.820;23.490;2023-05-22T02:41:52;89750.38;;;14.12;65.61
10366;BME280;5229;41.820;23.490;2023-05-22T02:44:18;89747.00;;;14.12;65.59
10366;BME280;5229;41.820;23.490;2023-05-22T02:46:45;89755.66;;;14.16;65.35
10366;BME280;5229;41.820;23.490;2023-05-22T02:49:12;89750.56;;;14.19;65.05
10366;BME280;5229;41.820;23.490;2023-05-22T02:51:39;89753.59;;;14.21;64.84
10366;BME280;5229;41.820;23.490;2023-05-22T02:54:06;89758.06;;;14.21;64.65
10366;BME280;5229;41.820;23.490;2023-05-22T02:56:34;89754.81;;;14.24;64.12
10366;BME280;5229;41.820;23.490;2023-05-22T02:59:01;89759.34;;;14.27;64.25
10366;BME280;5229;41.820;23.490;2023-05-22T03:01:27;89748.91;;;14.27;64.26
10366;BME280;5229;41.820;23.490;2023-05-22T03:03:55;89754.81;;;14.24;64.19
10366;BME280;5229;41.820;23.490;2023-05-22T03:06:22;89757.00;;;14.22;64.45
10366;BME280;5229;41.820;23.490;2023-05-22T03:08:49;89756.09;;;14.18;64.68
10366;BME280;5229;41.820;23.490;2023-05-22T03:11:17;89765.44;;;14.19;64.71
10366;BME280;5229;41.820;23.490;2023-05-22T03:13:45;89761.00;;;14.19;64.95
10366;BME280;5229;41.820;23.490;2023-05-22T03:16:12;89763.59;;;14.19;64.67
10366;BME280;5229;41.820;23.490;2023-05-22T03:18:39;89768.06;;;14.19;64.83
10366;BME280;5229;41.820;23.490;2023-05-22T03:21:05;89770.25;;;14.17;64.69
10366;BME280;5229;41.820;23.490;2023-05-22T03:23:32;89774.78;;;14.20;65.12
10366;BME280;5229;41.820;23.490;2023-05-22T03:25:59;89777.19;;;14.25;64.84
10366;BME280;5229;41.820;23.490;2023-05-22T03:28:26;89772.84;;;14.29;64.72
10366;BME280;5229;41.820;23.490;2023-05-22T03:30:54;89772.41;;;14.27;64.45
10366;BME280;5229;41.820;23.490;2023-05-22T03:33:20;89770.56;;;14.27;64.34
10366;BME280;5229;41.820;23.490;2023-05-22T03:35:47;89769.91;;;14.30;64.13
10366;BME280;5229;41.820;23.490;2023-05-22T03:38:14;89775.88;;;14.31;64.29
10366;BME280;5229;41.820;23.490;2023-05-22T03:40:41;89774.34;;;14.30;64.17
10366;BME280;5229;41.820;23.490;2023-05-22T03:43:07;89780.22;;;14.27;64.13
10366;BME280;5229;41.820;23.490;2023-05-22T03:45:34;89782.41;;;14.25;64.62
10366;BME280;5229;41.820;23.490;2023-05-22T03:48:02;89781.66;;;14.24;64.48
10366;BME280;5229;41.820;23.490;2023-05-22T03:50:29;89791.97;;;14.21;64.58
10366;BME280;5229;41.820;23.490;2023-05-22T03:52:56;89790.41;;;14.20;64.50
10366;BME280;5229;41.820;23.490;2023-05-22T03:55:23;89792.63;;;14.18;64.70
10366;BME280;5229;41.820;23.490;2023-05-22T03:57:50;89790.00;;;14.18;64.75
10366;BME280;5229;41.820;23.490;2023-05-22T04:00:18;89803.69;;;14.15;64.78
10366;BME280;5229;41.820;23.490;2023-05-22T04:02:45;89797.63;;;14.11;64.72
10366;BME280;5229;41.820;23.490;2023-05-22T04:05:13;89794.91;;;14.07;65.28
10366;BME280;5229;41.820;23.490;2023-05-22T04:07:40;89800.44;;;14.06;65.00
10366;BME280;5229;41.820;23.490;2023-05-22T04:10:07;89803.41;;;14.04;65.00
10366;BME280;5229;41.820;23.490;2023-05-22T04:12:34;89801.13;;;14.03;65.10
10366;BME280;5229;41.820;23.490;2023-05-22T04:15:01;89801.78;;;14.00;65.10
10366;BME280;5229;41.820;23.490;2023-05-22T04:17:30;89804.38;;;14.00;65.33
10366;BME280;5229;41.820;23.490;2023-05-22T04:19:57;89813.19;;;13.95;65.63
10366;BME280;5229;41.820;23.490;2023-05-22T04:22:25;89803.06;;;13.94;65.41
10366;BME280;5229;41.820;23.490;2023-05-22T04:24:55;89809.38;;;13.93;65.78
10366;BME280;5229;41.820;23.490;2023-05-22T04:27:22;89808.19;;;13.90;65.85
10366;BME280;5229;41.820;23.490;2023-05-22T04:29:49;89804.06;;;13.89;66.00
10366;BME280;5229;41.820;23.490;2023-05-22T04:32:16;89808.19;;;13.90;65.95
10366;BME280;5229;41.820;23.490;2023-05-22T04:34:47;89804.69;;;13.86;66.16
10366;BME280;5229;41.820;23.490;2023-05-22T04:37:14;89811.34;;;13.84;66.12
10366;BME280;5229;41.820;23.490;2023-05-22T04:39:42;89809.38;;;13.81;66.03
10366;BME280;5229;41.820;23.490;2023-05-22T04:42:10;89811.13;;;13.77;66.21
10366;BME280;5229;41.820;23.490;2023-05-22T04:44:38;89814.06;;;13.75;66.52
10366;BME280;5229;41.820;23.490;2023-05-22T04:47:06;89818.19;;;13.76;66.82
10366;BME280;5229;41.820;23.490;2023-05-22T04:49:36;89812.22;;;13.76;66.80
10366;BME280;5229;41.820;23.490;2023-05-22T04:52:04;89813.72;;;13.77;66.96
10366;BME280;5229;41.820;23.490;2023-05-22T04:54:31;89806.34;;;13.79;66.82
10366;BME280;5229;41.820;23.490;2023-05-22T04:57:00;89812.44;;;13.83;66.95
10366;BME280;5229;41.820;23.490;2023-05-22T04:59:27;89810.28;;;13.85;66.67
10366;BME280;5229;41.820;23.490;2023-05-22T05:01:54;89811.88;;;13.89;66.55
10366;BME280;5229;41.820;23.490;2023-05-22T05:04:20;89810.47;;;13.92;66.84
10366;BME280;5229;41.820;23.490;2023-05-22T05:06:47;89813.94;;;13.96;66.68
10366;BME280;5229;41.820;23.490;2023-05-22T05:09:14;89807.31;;;13.98;66.68
10366;BME280;5229;41.820;23.490;2023-05-22T05:11:41;89809.28;;;14.01;66.63
10366;BME280;5229;41.820;23.490;2023-05-22T05:14:09;89814.56;;;14.05;66.47
10366;BME280;5229;41.820;23.490;2023-05-22T05:16:36;89810.22;;;14.09;66.76
10366;BME280;5229;41.820;23.490;2023-05-22T05:19:03;89810.44;;;14.16;66.70
10366;BME280;5229;41.820;23.490;2023-05-22T05:21:29;89809.25;;;14.25;66.60
10366;BME280;5229;41.820;23.490;2023-05-22T05:23:56;89813.91;;;14.32;66.16
10366;BME280;5229;41.820;23.490;2023-05-22T05:26:23;89814.00;;;14.35;66.16
10366;BME280;5229;41.820;23.490;2023-05-22T05:28:51;89807.38;;;14.38;66.31
10366;BME280;5229;41.820;23.490;2023-05-22T05:31:19;89809.63;;;14.39;66.12
10366;BME280;5229;41.820;23.490;2023-05-22T05:33:47;89820.97;;;14.43;66.33
10366;BME280;5229;41.820;23.490;2023-05-22T05:36:14;89819.94;;;14.48;66.37
10366;BME280;5229;41.820;23.490;2023-05-22T05:38:41;89809.94;;;14.50;66.23
10366;BME280;5229;41.820;23.490;2023-05-22T05:41:08;89821.69;;;14.56;66.19
10366;BME280;5229;41.820;23.490;2023-05-22T05:43:35;89821.44;;;14.61;66.05
10366;BME280;5229;41.820;23.490;2023-05-22T05:46:01;89820.78;;;14.64;66.18
10366;BME280;5229;41.820;23.490;2023-05-22T05:48:29;89823.91;;;14.69;66.09
10366;BME280;5229;41.820;23.490;2023-05-22T05:50:56;89819.56;;;14.73;66.17
10366;BME280;5229;41.820;23.490;2023-05-22T05:53:23;89834.22;;;14.78;66.02
10366;BME280;5229;41.820;23.490;2023-05-22T05:55:50;89829.84;;;14.82;66.38
10366;BME280;5229;41.820;23.490;2023-05-22T05:58:16;89831.81;;;14.85;66.31
10366;BME280;5229;41.820;23.490;2023-05-22T06:00:43;89832.00;;;14.92;66.14
10366;BME280;5229;41.820;23.490;2023-05-22T06:03:10;89833.63;;;14.97;65.69
10366;BME280;5229;41.820;23.490;2023-05-22T06:05:38;89833.78;;;15.04;65.43
10366;BME280;5229;41.820;23.490;2023-05-22T06:08:05;89834.22;;;15.06;65.71
10366;BME280;5229;41.820;23.490;2023-05-22T06:10:32;89836.94;;;15.09;65.12
10366;BME280;5229;41.820;23.490;2023-05-22T06:12:59;89844.06;;;15.12;64.91
10366;BME280;5229;41.820;23.490;2023-05-22T06:15:26;89838.19;;;15.15;64.27
10366;BME280;5229;41.820;23.490;2023-05-22T06:17:53;89841.75;;;15.23;64.25
10366;BME280;5229;41.820;23.490;2023-05-22T06:20:20;89845.31;;;15.30;63.69
10366;BME280;5229;41.820;23.490;2023-05-22T06:22:48;89844.75;;;15.37;63.33
10366;BME280;5229;41.820;23.490;2023-05-22T06:25:15;89844.59;;;15.45;63.15
10366;BME280;5229;41.820;23.490;2023-05-22T06:27:42;89851.94;;;15.55;62.86
10366;BME280;5229;41.820;23.490;2023-05-22T06:30:08;89849.59;;;15.66;61.99
10366;BME280;5229;41.820;23.490;2023-05-22T06:32:35;89846.81;;;15.74;61.93
10366;BME280;5229;41.820;23.490;2023-05-22T06:35:02;89851.44;;;15.81;61.25
10366;BME280;5229;41.820;23.490;2023-05-22T06:37:29;89850.59;;;15.92;60.92
10366;BME280;5229;41.820;23.490;2023-05-22T06:40:01;89845.97;;;16.01;60.50
10366;BME280;5229;41.820;23.490;2023-05-22T06:42:28;89849.81;;;16.07;60.66
10366;BME280;5229;41.820;23.490;2023-05-22T06:44:54;89847.63;;;16.09;61.08
10366;BME280;5229;41.820;23.490;2023-05-22T06:47:21;89854.03;;;16.12;61.55
10366;BME280;5229;41.820;23.490;2023-05-22T06:49:48;89845.50;;;16.15;61.20
10366;BME280;5229;41.820;23.490;2023-05-22T06:52:15;89853.88;;;16.20;61.36
10366;BME280;5229;41.820;23.490;2023-05-22T06:54:41;89861.81;;;16.24;61.16
10366;BME280;5229;41.820;23.490;2023-05-22T06:57:10;89860.34;;;16.26;61.91
10366;BME280;5229;41.820;23.490;2023-05-22T06:59:37;89860.75;;;16.28;61.91
10366;BME280;5229;41.820;23.490;2023-05-22T07:02:04;89863.81;;;16.30;62.45
10366;BME280;5229;41.820;23.490;2023-05-22T07:04:31;89858.63;;;16.34;62.41
10366;BME280;5229;41.820;23.490;2023-05-22T07:06:58;89853.50;;;16.37;62.30
10366;BME280;5229;41.820;23.490;2023-05-22T07:09:25;89851.41;;;16.43;61.96
10366;BME280;5229;41.820;23.490;2023-05-22T07:11:52;89856.13;;;16.53;62.12
10366;BME280;5229;41.820;23.490;2023-05-22T07:14:20;89851.84;;;16.64;62.09
10366;BME280;5229;41.820;23.490;2023-05-22T07:16:47;89852.81;;;16.75;61.87
10366;BME280;5229;41.820;23.490;2023-05-22T07:19:14;89850.84;;;16.87;61.13
10366;BME280;5229;41.820;23.490;2023-05-22T07:21:40;89854.75;;;16.97;61.00
10366;BME280;5229;41.820;23.490;2023-05-22T07:24:07;89848.97;;;17.07;60.41
10366;BME280;5229;41.820;23.490;2023-05-22T07:26:34;89852.22;;;17.19;59.93
10366;BME280;5229;41.820;23.490;2023-05-22T07:29:01;89855.53;;;17.35;59.88
10366;BME280;5229;41.820;23.490;2023-05-22T07:31:29;89842.41;;;17.55;59.52
10366;BME280;5229;41.820;23.490;2023-05-22T07:33:58;89846.84;;;17.73;58.83
10366;BME280;5229;41.820;23.490;2023-05-22T07:36:25;89850.44;;;17.88;57.99
10366;BME280;5229;41.820;23.490;2023-05-22T07:38:52;89843.94;;;18.01;56.87
10366;BME280;5229;41.820;23.490;2023-05-22T07:41:18;89846.78;;;18.15;55.56
10366;BME280;5229;41.820;23.490;2023-05-22T07:43:46;89854.41;;;18.23;55.06
10366;BME280;5229;41.820;23.490;2023-05-22T07:46:13;89855.66;;;18.33;54.81
10366;BME280;5229;41.820;23.490;2023-05-22T07:48:41;89856.50;;;18.37;54.36
10366;BME280;5229;41.820;23.490;2023-05-22T07:51:08;89863.28;;;18.38;54.07
10366;BME280;5229;41.820;23.490;2023-05-22T07:53:35;89863.28;;;18.38;53.07
10366;BME280;5229;41.820;23.490;2023-05-22T07:56:02;89863.28;;;18.38;51.94
10366;BME280;5229;41.820;23.490;2023-05-22T07:58:28;89862.19;;;18.39;50.99
10366;BME280;5229;41.820;23.490;2023-05-22T08:00:55;89864.13;;;18.45;50.47
10366;BME280;5229;41.820;23.490;2023-05-22T08:03:22;89867.22;;;18.51;50.14
10366;BME280;5229;41.820;23.490;2023-05-22T08:05:50;89871.00;;;18.53;49.74
10366;BME280;5229;41.820;23.490;2023-05-22T08:08:17;89869.50;;;18.52;49.73
10366;BME280;5229;41.820;23.490;2023-05-22T08:10:44;89871.75;;;18.54;49.55
10366;BME280;5229;41.820;23.490;2023-05-22T08:13:13;89875.56;;;18.56;49.45
10366;BME280;5229;41.820;23.490;2023-05-22T08:15:41;89874.84;;;18.59;49.55
10366;BME280;5229;41.820;23.490;2023-05-22T08:18:07;89874.91;;;18.63;49.87
10366;BME280;5229;41.820;23.490;2023-05-22T08:20:34;89872.63;;;18.61;49.43
10366;BME280;5229;41.820;23.490;2023-05-22T08:23:03;89881.66;;;18.64;49.31
10366;BME280;5229;41.820;23.490;2023-05-22T08:25:30;89878.25;;;18.60;49.58
10366;BME280;5229;41.820;23.490;2023-05-22T08:27:57;89878.97;;;18.60;49.31
10366;BME280;5229;41.820;23.490;2023-05-22T08:30:24;89879.72;;;18.57;49.04
10366;BME280;5229;41.820;23.490;2023-05-22T08:32:50;89880.81;;;18.56;48.95
10366;BME280;5229;41.820;23.490;2023-05-22T08:35:17;89889.44;;;18.57;49.08
10366;BME280;5229;41.820;23.490;2023-05-22T08:37:44;89884.19;;;18.57;49.63
10366;BME280;5229;41.820;23.490;2023-05-22T08:40:13;89888.66;;;18.53;51.82
10366;BME280;5229;41.820;23.490;2023-05-22T08:42:41;89891.88;;;18.43;52.28
10366;BME280;5229;41.820;23.490;2023-05-22T08:45:08;89886.38;;;18.29;52.48
10366;BME280;5229;41.820;23.490;2023-05-22T08:47:36;89882.41;;;18.16;52.99
10366;BME280;5229;41.820;23.490;2023-05-22T08:50:03;89890.47;;;18.04;53.46
10366;BME280;5229;41.820;23.490;2023-05-22T08:52:34;89880.91;;;17.92;54.57
10366;BME280;5229;41.820;23.490;2023-05-22T08:55:03;89890.78;;;17.80;55.51
10366;BME280;5229;41.820;23.490;2023-05-22T08:57:33;89889.84;;;17.69;56.48
10366;BME280;5229;41.820;23.490;2023-05-22T09:00:00;89887.75;;;17.55;56.92
10366;BME280;5229;41.820;23.490;2023-05-22T09:02:28;89899.53;;;17.45;57.61
10366;BME280;5229;41.820;23.490;2023-05-22T09:04:55;89897.31;;;17.28;58.09
10366;BME280;5229;41.820;23.490;2023-05-22T09:07:21;89901.53;;;17.14;59.00
10366;BME280;5229;41.820;23.490;2023-05-22T09:09:49;89891.59;;;17.04;59.29
10366;BME280;5229;41.820;23.490;2023-05-22T09:12:16;89894.41;;;16.95;59.61
10366;BME280;5229;41.820;23.490;2023-05-22T09:14:44;89899.50;;;16.88;60.27
10366;BME280;5229;41.820;23.490;2023-05-22T09:17:14;89895.22;;;16.80;60.42
10366;BME280;5229;41.820;23.490;2023-05-22T09:19:43;89894.66;;;16.71;60.21
10366;BME280;5229;41.820;23.490;2023-05-22T09:22:11;89897.38;;;16.59;60.52
10366;BME280;5229;41.820;23.490;2023-05-22T09:24:39;89898.34;;;16.51;61.00
10366;BME280;5229;41.820;23.490;2023-05-22T09:27:07;89898.53;;;16.43;61.01
10366;BME280;5229;41.820;23.490;2023-05-22T09:29:47;89893.78;;;16.33;61.36
10366;BME280;5229;41.820;23.490;2023-05-22T09:32:15;89901.56;;;16.29;61.81
10366;BME280;5229;41.820;23.490;2023-05-22T09:34:42;89902.22;;;16.26;62.30
10366;BME280;5229;41.820;23.490;2023-05-22T09:37:09;89905.91;;;16.25;62.11
10366;BME280;5229;41.820;23.490;2023-05-22T09:39:40;89895.81;;;16.24;61.21
10366;BME280;5229;41.820;23.490;2023-05-22T09:42:09;89904.75;;;16.23;60.92
10366;BME280;5229;41.820;23.490;2023-05-22T09:44:39;89896.56;;;16.24;60.92
10366;BME280;5229;41.820;23.490;2023-05-22T09:47:08;89890.22;;;16.25;59.79
10366;BME280;5229;41.820;23.490;2023-05-22T09:49:35;89897.16;;;16.33;59.34
10366;BME280;5229;41.820;23.490;2023-05-22T09:52:07;89886.06;;;16.40;59.75
10366;BME280;5229;41.820;23.490;2023-05-22T09:54:34;89892.66;;;16.49;58.77
10366;BME280;5229;41.820;23.490;2023-05-22T09:57:05;89887.69;;;16.60;58.58
10366;BME280;5229;41.820;23.490;2023-05-22T09:59:35;89883.34;;;16.67;58.10
10366;BME280;5229;41.820;23.490;2023-05-22T10:02:05;89879.00;;;16.75;57.91
10366;BME280;5229;41.820;23.490;2023-05-22T10:04:35;89879.22;;;16.85;57.93
10366;BME280;5229;41.820;23.490;2023-05-22T10:07:04;89883.94;;;16.95;57.56
10366;BME280;5229;41.820;23.490;2023-05-22T10:09:34;89878.91;;;17.06;58.15
10366;BME280;5229;41.820;23.490;2023-05-22T10:12:05;89873.53;;;17.18;57.55
10366;BME280;5229;41.820;23.490;2023-05-22T10:14:34;89871.16;;;17.32;56.12
10366;BME280;5229;41.820;23.490;2023-05-22T10:17:02;89867.72;;;17.47;55.39
10366;BME280;5229;41.820;23.490;2023-05-22T10:19:31;89859.03;;;17.62;55.03
10366;BME280;5229;41.820;23.490;2023-05-22T10:22:01;89864.22;;;17.81;54.35
10366;BME280;5229;41.820;23.490;2023-05-22T10:24:28;89864.22;;;18.04;54.15
10366;BME280;5229;41.820;23.490;2023-05-22T10:26:56;89863.97;;;18.35;53.57
10366;BME280;5229;41.820;23.490;2023-05-22T10:29:28;89859.16;;;18.63;52.64
10366;BME280;5229;41.820;23.490;2023-05-22T10:32:02;89852.81;;;18.97;51.70
10366;BME280;5229;41.820;23.490;2023-05-22T10:34:35;89846.25;;;19.43;50.46
10366;BME280;5229;41.820;23.490;2023-05-22T10:37:14;89838.00;;;19.81;50.07
10366;BME280;5229;41.820;23.490;2023-05-22T10:39:59;89843.31;;;20.25;48.55
10366;BME280;5229;41.820;23.490;2023-05-22T10:42:29;89835.34;;;20.72;47.21
10366;BME280;5229;41.820;23.490;2023-05-22T10:44:58;89839.72;;;21.11;45.69
10366;BME280;5229;41.820;23.490;2023-05-22T10:47:25;89834.19;;;21.37;44.17
10366;BME280;5229;41.820;23.490;2023-05-22T10:50:02;89831.59;;;21.58;43.46
10366;BME280;5229;41.820;23.490;2023-05-22T10:52:31;89833.19;;;21.77;42.15
10366;BME280;5229;41.820;23.490;2023-05-22T10:54:59;89830.56;;;21.87;41.82
10366;BME280;5229;41.820;23.490;2023-05-22T10:57:26;89826.81;;;21.92;40.99
10366;BME280;5229;41.820;23.490;2023-05-22T11:00:05;89827.19;;;21.94;40.75
10366;BME280;5229;41.820;23.490;2023-05-22T11:02:38;89827.19;;;21.94;40.62
10366;BME280;5229;41.820;23.490;2023-05-22T11:05:33;89830.94;;;21.86;40.58
10366;BME280;5229;41.820;23.490;2023-05-22T11:08:36;89828.69;;;21.84;40.18
10366;BME280;5229;41.820;23.490;2023-05-22T11:11:11;89830.56;;;21.84;40.22
10366;BME280;5229;41.820;23.490;2023-05-22T11:13:39;89823.75;;;21.79;40.34
10366;BME280;5229;41.820;23.490;2023-05-22T11:16:08;89827.88;;;21.73;40.13
10366;BME280;5229;41.820;23.490;2023-05-22T11:18:36;89821.03;;;21.58;40.25
10366;BME280;5229;41.820;23.490;2023-05-22T11:21:03;89821.78;;;21.52;40.34
10366;BME280;5229;41.820;23.490;2023-05-22T11:23:33;89823.31;;;21.49;40.87
10366;BME280;5229;41.820;23.490;2023-05-22T11:26:19;89825.53;;;21.44;40.64
10366;BME280;5229;41.820;23.490;2023-05-22T11:28:49;89826.66;;;21.39;40.24
10366;BME280;5229;41.820;23.490;2023-05-22T11:31:18;89827.00;;;21.34;40.67
10366;BME280;5229;41.820;23.490;2023-05-22T11:33:47;89844.34;;;21.28;40.80
10366;BME280;5229;41.820;23.490;2023-05-22T11:36:14;89853.66;;;21.05;41.21
10366;BME280;5229;41.820;23.490;2023-05-22T11:38:41;89858.28;;;20.64;41.44
10366;BME280;5229;41.820;23.490;2023-05-22T11:41:09;89877.56;;;20.28;42.35
10366;BME280;5229;41.820;23.490;2023-05-22T11:43:41;89893.81;;;19.97;44.49
10366;BME280;5229;41.820;23.490;2023-05-22T11:46:08;89889.50;;;19.45;47.12
10366;BME280;5229;41.820;23.490;2023-05-22T11:48:39;89881.97;;;18.85;49.59
10366;BME280;5229;41.820;23.490;2023-05-22T11:51:06;89861.28;;;18.31;51.96
10366;BME280;5229;41.820;23.490;2023-05-22T11:53:34;89859.56;;;17.94;54.14
10366;BME280;5229;41.820;23.490;2023-05-22T11:56:02;89853.84;;;17.66;55.96
10366;BME280;5229;41.820;23.490;2023-05-22T11:58:30;89850.00;;;17.40;57.38
10366;BME280;5229;41.820;23.490;2023-05-22T12:00:59;89850.16;;;17.28;58.63
10366;BME280;5229;41.820;23.490;2023-05-22T12:03:27;89850.72;;;17.18;59.61
10366;BME280;5229;41.820;23.490;2023-05-22T12:05:55;89837.88;;;17.13;59.84
10366;BME280;5229;41.820;23.490;2023-05-22T12:08:22;89836.31;;;17.09;60.75
10366;BME280;5229;41.820;23.490;2023-05-22T12:10:49;89821.28;;;17.06;60.51
10366;BME280;5229;41.820;23.490;2023-05-22T12:13:26;89817.16;;;17.05;61.69
10366;BME280;5229;41.820;23.490;2023-05-22T12:15:57;89821.31;;;17.09;61.91
10366;BME280;5229;41.820;23.490;2023-05-22T12:18:26;89816.22;;;17.16;62.29
10366;BME280;5229;41.820;23.490;2023-05-22T12:21:00;89829.41;;;17.20;62.81
10366;BME280;5229;41.820;23.490;2023-05-22T12:23:27;89823.88;;;17.25;63.07
10366;BME280;5229;41.820;23.490;2023-05-22T12:26:00;89810.88;;;17.32;63.20
10366;BME280;5229;41.820;23.490;2023-05-22T12:28:30;89816.34;;;17.42;62.93
10366;BME280;5229;41.820;23.490;2023-05-22T12:30:57;89813.13;;;17.52;63.04
10366;BME280;5229;41.820;23.490;2023-05-22T12:33:28;89809.59;;;17.64;63.57
10366;BME280;5229;41.820;23.490;2023-05-22T12:35:56;89810.19;;;17.77;63.66
10366;BME280;5229;41.820;23.490;2023-05-22T12:38:24;89808.09;;;17.86;63.83
10366;BME280;5229;41.820;23.490;2023-05-22T12:40:51;89802.63;;;17.98;64.19
10366;BME280;5229;41.820;23.490;2023-05-22T12:43:19;89803.56;;;18.09;64.24
10366;BME280;5229;41.820;23.490;2023-05-22T12:45:46;89805.59;;;18.19;64.08
10366;BME280;5229;41.820;23.490;2023-05-22T12:48:13;89798.94;;;18.25;64.24
10366;BME280;5229;41.820;23.490;2023-05-22T12:50:42;89796.78;;;18.34;64.34
10366;BME280;5229;41.820;23.490;2023-05-22T12:53:09;89797.75;;;18.45;64.22
10366;BME280;5229;41.820;23.490;2023-05-22T12:55:37;89792.97;;;18.54;64.09
10366;BME280;5229;41.820;23.490;2023-05-22T12:58:03;89791.59;;;18.63;64.39
10366;BME280;5229;41.820;23.490;2023-05-22T13:00:30;89794.00;;;18.75;63.92
10366;BME280;5229;41.820;23.490;2023-05-22T13:02:57;89796.00;;;18.85;64.10
10366;BME280;5229;41.820;23.490;2023-05-22T13:05:24;89786.41;;;19.00;64.70
10366;BME280;5229;41.820;23.490;2023-05-22T13:07:52;89788.75;;;19.08;65.46
10366;BME280;5229;41.820;23.490;2023-05-22T13:10:19;89783.59;;;19.15;65.79